sensor_id;sensor_type;location;lat;lon;timestamp;pressure;altitude;pressure_sealevel;temperature;humidity
78843;BME280;70542;53.774;-0.352;2023-09-30T00:02:39;102360;;;15;46
78843;BME280;70542;53.774;-0.352;2023-09-30T00:08:18;102350;;;15;44
78843;BME280;70542;53.774;-0.352;2023-09-30T00:13:56;102350;;;15;43
78843;BME280;70542;53.774;-0.352;2023-09-30T00:19:35;102360;;;16;43
78843;BME280;70542;53.774;-0.352;2023-09-30T00:25:14;102360;;;15;44
78843;BME280;70542;53.774;-0.352;2023-09-30T00:30:54;102350;;;16;42
78843;BME280;70542;53.774;-0.352;2023-09-30T00:36:33;102350;;;14;46
78843;BME280;70542;53.774;-0.352;2023-09-30T00:42:17;102350;;;15;46
78843;BME280;70542;53.774;-0.352;2023-09-30T00:47:56;102360;;;15;45
78843;BME280;70542;53.774;-0.352;2023-09-30T00:53:36;102360;;;16;43
78843;BME280;70542;53.774;-0.352;2023-09-30T00:59:16;102360;;;16;43
78843;BME280;70542;53.774;-0.352;2023-09-30T01:04:56;102360;;;16;42
78843;BME280;70542;53.774;-0.352;2023-09-30T01:10:35;102370;;;17;41
78843;BME280;70542;53.774;-0.352;2023-09-30T01:16:18;102370;;;17;40
78843;BME280;70542;53.774;-0.352;2023-09-30T01:21:57;102370;;;16;42
78843;BME280;70542;53.774;-0.352;2023-09-30T01:27:36;102360;;;17;42
78843;BME280;70542;53.774;-0.352;2023-09-30T01:33:14;102370;;;17;42
78843;BME280;70542;53.774;-0.352;2023-09-30T01:38:53;102370;;;17;41
78843;BME280;70542;53.774;-0.352;2023-09-30T01:44:32;102360;;;17;41
78843;BME280;70542;53.774;-0.352;2023-09-30T01:50:11;102350;;;17;40
78843;BME280;70542;53.774;-0.352;2023-09-30T01:55:50;102350;;;17;40
78843;BME280;70542;53.774;-0.352;2023-09-30T02:01:29;102340;;;17;41
78843;BME280;70542;53.774;-0.352;2023-09-30T02:07:08;102350;;;17;41
78843;BME280;70542;53.774;-0.352;2023-09-30T02:12:48;102350;;;17;41
78843;BME280;70542;53.774;-0.352;2023-09-30T02:18:26;102340;;;17;41
78843;BME280;70542;53.774;-0.352;2023-09-30T02:24:06;102360;;;16;42
78843;BME280;70542;53.774;-0.352;2023-09-30T02:29:45;102360;;;17;41
78843;BME280;70542;53.774;-0.352;2023-09-30T02:35:24;102350;;;17;41
78843;BME280;70542;53.774;-0.352;2023-09-30T02:41:03;102350;;;17;42
78843;BME280;70542;53.774;-0.352;2023-09-30T02:46:42;102350;;;16;43
78843;BME280;70542;53.774;-0.352;2023-09-30T02:52:21;102360;;;14;47
78843;BME280;70542;53.774;-0.352;2023-09-30T02:58:00;102360;;;15;46
78843;BME280;70542;53.774;-0.352;2023-09-30T03:03:39;102370;;;15;47
78843;BME280;70542;53.774;-0.352;2023-09-30T03:09:17;102370;;;15;47
78843;BME280;70542;53.774;-0.352;2023-09-30T03:14:57;102370;;;14;50
78843;BME280;70542;53.774;-0.352;2023-09-30T03:20:36;102360;;;14;48
78843;BME280;70542;53.774;-0.352;2023-09-30T03:26:14;102370;;;15;46
78843;BME280;70542;53.774;-0.352;2023-09-30T03:31:57;102370;;;16;44
78843;BME280;70542;53.774;-0.352;2023-09-30T03:37:37;102380;;;16;44
78843;BME280;70542;53.774;-0.352;2023-09-30T03:43:15;102360;;;15;45
78843;BME280;70542;53.774;-0.352;2023-09-30T03:48:54;102370;;;16;44
78843;BME280;70542;53.774;-0.352;2023-09-30T03:54:33;102370;;;16;44
78843;BME280;70542;53.774;-0.352;2023-09-30T04:00:12;102370;;;16;44
78843;BME280;70542;53.774;-0.352;2023-09-30T04:05:52;102370;;;16;44
78843;BME280;70542;53.774;-0.352;2023-09-30T04:11:31;102380;;;16;44
78843;BME280;70542;53.774;-0.352;2023-09-30T04:17:10;102380;;;15;45
78843;BME280;70542;53.774;-0.352;2023-09-30T04:22:49;102370;;;16;45
78843;BME280;70542;53.774;-0.352;2023-09-30T04:28:29;102360;;;16;44
78843;BME280;70542;53.774;-0.352;2023-09-30T04:34:08;102370;;;15;44
78843;BME280;70542;53.774;-0.352;2023-09-30T04:39:47;102370;;;15;44
78843;BME280;70542;53.774;-0.352;2023-09-30T04:45:26;102370;;;16;44
78843;BME280;70542;53.774;-0.352;2023-09-30T04:51:06;102370;;;15;44
78843;BME280;70542;53.774;-0.352;2023-09-30T04:56:46;102390;;;15;44
78843;BME280;70542;53.774;-0.352;2023-09-30T05:02:25;102380;;;15;44
78843;BME280;70542;53.774;-0.352;2023-09-30T05:08:05;102390;;;15;44
78843;BME280;70542;53.774;-0.352;2023-09-30T05:13:43;102400;;;15;45
78843;BME280;70542;53.774;-0.352;2023-09-30T05:19:23;102400;;;16;45
78843;BME280;70542;53.774;-0.352;2023-09-30T05:25:04;102400;;;15;45
78843;BME280;70542;53.774;-0.352;2023-09-30T05:30:43;102400;;;15;45
78843;BME280;70542;53.774;-0.352;2023-09-30T05:36:22;102400;;;14;46
78843;BME280;70542;53.774;-0.352;2023-09-30T05:42:01;102400;;;15;45
78843;BME280;70542;53.774;-0.352;2023-09-30T05:47:41;102400;;;15;45
78843;BME280;70542;53.774;-0.352;2023-09-30T05:53:20;102400;;;15;45
78843;BME280;70542;53.774;-0.352;2023-09-30T05:58:59;102420;;;15;44
78843;BME280;70542;53.774;-0.352;2023-09-30T06:04:38;102420;;;15;44
78843;BME280;70542;53.774;-0.352;2023-09-30T06:10:17;102420;;;16;43
78843;BME280;70542;53.774;-0.352;2023-09-30T06:15:56;102430;;;15;44
78843;BME280;70542;53.774;-0.352;2023-09-30T06:21:35;102430;;;15;44
78843;BME280;70542;53.774;-0.352;2023-09-30T06:27:14;102450;;;16;44
78843;BME280;70542;53.774;-0.352;2023-09-30T06:32:53;102420;;;15;44
78843;BME280;70542;53.774;-0.352;2023-09-30T06:38:35;102400;;;16;44
78843;BME280;70542;53.774;-0.352;2023-09-30T06:44:19;102410;;;16;44
78843;BME280;70542;53.774;-0.352;2023-09-30T06:50:00;102410;;;16;44
78843;BME280;70542;53.774;-0.352;2023-09-30T06:55:39;102410;;;15;44
78843;BME280;70542;53.774;-0.352;2023-09-30T07:01:18;102420;;;16;44
78843;BME280;70542;53.774;-0.352;2023-09-30T07:06:57;102430;;;16;43
78843;BME280;70542;53.774;-0.352;2023-09-30T07:12:36;102430;;;16;44
78843;BME280;70542;53.774;-0.352;2023-09-30T07:18:16;102440;;;16;44
78843;BME280;70542;53.774;-0.352;2023-09-30T07:23:55;102470;;;16;44
78843;BME280;70542;53.774;-0.352;2023-09-30T07:29:39;102470;;;16;44
78843;BME280;70542;53.774;-0.352;2023-09-30T07:35:18;102480;;;16;44
78843;BME280;70542;53.774;-0.352;2023-09-30T07:40:57;102480;;;16;48
78843;BME280;70542;53.774;-0.352;2023-09-30T07:46:36;102470;;;15;46
78843;BME280;70542;53.774;-0.352;2023-09-30T07:52:20;102480;;;16;46
78843;BME280;70542;53.774;-0.352;2023-09-30T07:57:59;102490;;;15;48
78843;BME280;70542;53.774;-0.352;2023-09-30T08:03:43;102480;;;15;46
78843;BME280;70542;53.774;-0.352;2023-09-30T08:09:25;102490;;;16;45
78843;BME280;70542;53.774;-0.352;2023-09-30T08:15:05;102480;;;15;47
78843;BME280;70542;53.774;-0.352;2023-09-30T08:20:44;102480;;;16;45
78843;BME280;70542;53.774;-0.352;2023-09-30T08:26:23;102480;;;15;47
78843;BME280;70542;53.774;-0.352;2023-09-30T08:32:03;102480;;;15;47
78843;BME280;70542;53.774;-0.352;2023-09-30T08:37:42;102490;;;14;50
78843;BME280;70542;53.774;-0.352;2023-09-30T08:43:25;102480;;;15;48
78843;BME280;70542;53.774;-0.352;2023-09-30T08:49:05;102470;;;16;46
78843;BME280;70542;53.774;-0.352;2023-09-30T08:54:44;102470;;;16;45
78843;BME280;70542;53.774;-0.352;2023-09-30T09:00:23;102480;;;16;45
78843;BME280;70542;53.774;-0.352;2023-09-30T09:06:02;102480;;;18;42
78843;BME280;70542;53.774;-0.352;2023-09-30T09:11:42;102470;;;19;40
78843;BME280;70542;53.774;-0.352;2023-09-30T09:17:21;102460;;;18;41
78843;BME280;70542;53.774;-0.352;2023-09-30T09:23:00;102460;;;18;43
78843;BME280;70542;53.774;-0.352;2023-09-30T09:28:44;102460;;;18;41
78843;BME280;70542;53.774;-0.352;2023-09-30T09:34:22;102450;;;17;43
78843;BME280;70542;53.774;-0.352;2023-09-30T09:40:01;102440;;;17;43
78843;BME280;70542;53.774;-0.352;2023-09-30T09:45:40;102450;;;18;41
78843;BME280;70542;53.774;-0.352;2023-09-30T09:51:20;102450;;;19;39
78843;BME280;70542;53.774;-0.352;2023-09-30T09:57:00;102460;;;19;39
78843;BME280;70542;53.774;-0.352;2023-09-30T10:02:41;102450;;;20;38
78843;BME280;70542;53.774;-0.352;2023-09-30T10:08:21;102440;;;21;37
78843;BME280;70542;53.774;-0.352;2023-09-30T10:14:05;102440;;;21;35
78843;BME280;70542;53.774;-0.352;2023-09-30T10:25:43;102460;;;22;35
78843;BME280;70542;53.774;-0.352;2023-09-30T10:31:23;102450;;;21;35
78843;BME280;70542;53.774;-0.352;2023-09-30T10:42:52;102440;;;22;35
78843;BME280;70542;53.774;-0.352;2023-09-30T10:48:34;102440;;;22;34
78843;BME280;70542;53.774;-0.352;2023-09-30T10:54:13;102430;;;22;34
78843;BME280;70542;53.774;-0.352;2023-09-30T11:05:47;102420;;;20;36
78843;BME280;70542;53.774;-0.352;2023-09-30T11:11:34;102420;;;22;35
78843;BME280;70542;53.774;-0.352;2023-09-30T11:17:13;102420;;;21;35
78843;BME280;70542;53.774;-0.352;2023-09-30T11:22:57;102420;;;21;35
78843;BME280;70542;53.774;-0.352;2023-09-30T11:28:37;102410;;;22;34
78843;BME280;70542;53.774;-0.352;2023-09-30T11:34:17;102410;;;21;35
78843;BME280;70542;53.774;-0.352;2023-09-30T11:40:09;102400;;;22;33
78843;BME280;70542;53.774;-0.352;2023-09-30T11:45:47;102400;;;22;34
78843;BME280;70542;53.774;-0.352;2023-09-30T11:51:27;102390;;;22;35
78843;BME280;70542;53.774;-0.352;2023-09-30T11:57:07;102380;;;21;36
78843;BME280;70542;53.774;-0.352;2023-09-30T12:02:46;102360;;;20;37
78843;BME280;70542;53.774;-0.352;2023-09-30T12:08:25;102360;;;20;37
78843;BME280;70542;53.774;-0.352;2023-09-30T12:14:04;102350;;;20;37
78843;BME280;70542;53.774;-0.352;2023-09-30T12:19:59;102340;;;20;36
78843;BME280;70542;53.774;-0.352;2023-09-30T12:25:38;102330;;;21;36
78843;BME280;70542;53.774;-0.352;2023-09-30T12:31:17;102320;;;20;36
78843;BME280;70542;53.774;-0.352;2023-09-30T12:37:02;102320;;;21;36
78843;BME280;70542;53.774;-0.352;2023-09-30T12:42:45;102340;;;21;35
78843;BME280;70542;53.774;-0.352;2023-09-30T12:48:45;102350;;;21;34
78843;BME280;70542;53.774;-0.352;2023-09-30T12:54:23;102340;;;21;35
78843;BME280;70542;53.774;-0.352;2023-09-30T13:00:18;102340;;;21;34
78843;BME280;70542;53.774;-0.352;2023-09-30T13:05:57;102330;;;21;35
78843;BME280;70542;53.774;-0.352;2023-09-30T13:11:37;102330;;;21;36
78843;BME280;70542;53.774;-0.352;2023-09-30T13:17:21;102330;;;22;36
78843;BME280;70542;53.774;-0.352;2023-09-30T13:23:00;102320;;;22;34
78843;BME280;70542;53.774;-0.352;2023-09-30T13:28:45;102320;;;21;34
78843;BME280;70542;53.774;-0.352;2023-09-30T13:34:24;102320;;;20;35
78843;BME280;70542;53.774;-0.352;2023-09-30T13:40:14;102310;;;20;37
78843;BME280;70542;53.774;-0.352;2023-09-30T13:46:03;102310;;;20;37
78843;BME280;70542;53.774;-0.352;2023-09-30T13:51:42;102310;;;20;38
78843;BME280;70542;53.774;-0.352;2023-09-30T13:57:20;102310;;;20;37
78843;BME280;70542;53.774;-0.352;2023-09-30T14:03:00;102310;;;20;38
78843;BME280;70542;53.774;-0.352;2023-09-30T14:08:45;102310;;;20;38
78843;BME280;70542;53.774;-0.352;2023-09-30T14:14:25;102310;;;20;38
78843;BME280;70542;53.774;-0.352;2023-09-30T14:20:10;102310;;;20;39
78843;BME280;70542;53.774;-0.352;2023-09-30T14:25:55;102300;;;20;40
78843;BME280;70542;53.774;-0.352;2023-09-30T14:31:39;102290;;;21;39
78843;BME280;70542;53.774;-0.352;2023-09-30T14:37:18;102270;;;21;39
78843;BME280;70542;53.774;-0.352;2023-09-30T14:42:58;102270;;;20;40
78843;BME280;70542;53.774;-0.352;2023-09-30T14:48:37;102270;;;21;39
78843;BME280;70542;53.774;-0.352;2023-09-30T14:54:16;102270;;;20;40
78843;BME280;70542;53.774;-0.352;2023-09-30T14:59:57;102270;;;21;40
78843;BME280;70542;53.774;-0.352;2023-09-30T15:05:36;102280;;;21;40
78843;BME280;70542;53.774;-0.352;2023-09-30T15:11:16;102260;;;20;40
78843;BME280;70542;53.774;-0.352;2023-09-30T15:17:00;102260;;;21;40
78843;BME280;70542;53.774;-0.352;2023-09-30T15:22:39;102250;;;20;41
78843;BME280;70542;53.774;-0.352;2023-09-30T15:28:18;102220;;;20;41
78843;BME280;70542;53.774;-0.352;2023-09-30T15:34:02;102240;;;21;41
78843;BME280;70542;53.774;-0.352;2023-09-30T15:39:41;102210;;;20;43
78843;BME280;70542;53.774;-0.352;2023-09-30T15:45:21;102230;;;20;42
78843;BME280;70542;53.774;-0.352;2023-09-30T15:51:01;102220;;;20;42
78843;BME280;70542;53.774;-0.352;2023-09-30T15:56:43;102200;;;20;42
78843;BME280;70542;53.774;-0.352;2023-09-30T16:02:22;102210;;;20;43
78843;BME280;70542;53.774;-0.352;2023-09-30T16:08:09;102200;;;20;44
78843;BME280;70542;53.774;-0.352;2023-09-30T16:13:48;102200;;;20;44
78843;BME280;70542;53.774;-0.352;2023-09-30T16:19:27;102200;;;19;46
78843;BME280;70542;53.774;-0.352;2023-09-30T16:25:06;102230;;;18;46
78843;BME280;70542;53.774;-0.352;2023-09-30T16:31:40;102220;;;16;48
78843;BME280;70542;53.774;-0.352;2023-09-30T16:37:19;102230;;;17;46
78843;BME280;70542;53.774;-0.352;2023-09-30T16:42:58;102220;;;18;45
78843;BME280;70542;53.774;-0.352;2023-09-30T16:48:58;102200;;;18;43
78843;BME280;70542;53.774;-0.352;2023-09-30T16:54:37;102230;;;18;44
78843;BME280;70542;53.774;-0.352;2023-09-30T17:00:17;102260;;;18;43
78843;BME280;70542;53.774;-0.352;2023-09-30T17:05:56;102220;;;18;44
78843;BME280;70542;53.774;-0.352;2023-09-30T17:11:35;102210;;;18;43
78843;BME280;70542;53.774;-0.352;2023-09-30T17:17:14;102210;;;18;43
78843;BME280;70542;53.774;-0.352;2023-09-30T17:22:53;102200;;;18;42
78843;BME280;70542;53.774;-0.352;2023-09-30T17:28:32;102200;;;18;42
78843;BME280;70542;53.774;-0.352;2023-09-30T17:34:18;102190;;;18;44
78843;BME280;70542;53.774;-0.352;2023-09-30T17:39:57;102190;;;18;45
78843;BME280;70542;53.774;-0.352;2023-09-30T17:45:36;102190;;;17;45
78843;BME280;70542;53.774;-0.352;2023-09-30T17:51:16;102200;;;17;46
78843;BME280;70542;53.774;-0.352;2023-09-30T17:56:55;102180;;;17;46
78843;BME280;70542;53.774;-0.352;2023-09-30T18:02:34;102180;;;17;46
78843;BME280;70542;53.774;-0.352;2023-09-30T18:08:13;102180;;;16;46
78843;BME280;70542;53.774;-0.352;2023-09-30T18:13:52;102170;;;16;47
78843;BME280;70542;53.774;-0.352;2023-09-30T18:19:31;102160;;;15;49
78843;BME280;70542;53.774;-0.352;2023-09-30T18:25:11;102160;;;15;51
78843;BME280;70542;53.774;-0.352;2023-09-30T18:30:50;102150;;;15;52
78843;BME280;70542;53.774;-0.352;2023-09-30T18:36:31;102140;;;15;53
78843;BME280;70542;53.774;-0.352;2023-09-30T18:42:10;102140;;;15;53
78843;BME280;70542;53.774;-0.352;2023-09-30T18:47:48;102150;;;15;53
78843;BME280;70542;53.774;-0.352;2023-09-30T18:53:27;102140;;;15;52
78843;BME280;70542;53.774;-0.352;2023-09-30T18:59:07;102130;;;15;52
78843;BME280;70542;53.774;-0.352;2023-09-30T19:04:46;102120;;;14;54
78843;BME280;70542;53.774;-0.352;2023-09-30T19:10:25;102120;;;15;53
78843;BME280;70542;53.774;-0.352;2023-09-30T19:16:04;102110;;;14;55
78843;BME280;70542;53.774;-0.352;2023-09-30T19:21:44;102100;;;14;56
78843;BME280;70542;53.774;-0.352;2023-09-30T19:27:23;102090;;;13;57
78843;BME280;70542;53.774;-0.352;2023-09-30T19:33:03;102090;;;14;58
78843;BME280;70542;53.774;-0.352;2023-09-30T19:38:42;102080;;;13;58
78843;BME280;70542;53.774;-0.352;2023-09-30T19:44:21;102080;;;14;58
78843;BME280;70542;53.774;-0.352;2023-09-30T19:50:00;102080;;;13;59
78843;BME280;70542;53.774;-0.352;2023-09-30T19:55:39;102060;;;14;58
78843;BME280;70542;53.774;-0.352;2023-09-30T20:06:56;102040;;;13;61
78843;BME280;70542;53.774;-0.352;2023-09-30T20:12:41;102030;;;13;60
78843;BME280;70542;53.774;-0.352;2023-09-30T20:18:20;102010;;;12;62
78843;BME280;70542;53.774;-0.352;2023-09-30T20:24:09;102020;;;12;64
78843;BME280;70542;53.774;-0.352;2023-09-30T20:30:04;101990;;;12;63
78843;BME280;70542;53.774;-0.352;2023-09-30T20:35:43;101980;;;12;62
78843;BME280;70542;53.774;-0.352;2023-09-30T20:41:22;101990;;;12;63
78843;BME280;70542;53.774;-0.352;2023-09-30T20:47:00;101970;;;13;61
78843;BME280;70542;53.774;-0.352;2023-09-30T20:52:39;101960;;;13;62
78843;BME280;70542;53.774;-0.352;2023-09-30T20:58:18;101950;;;13;63
78843;BME280;70542;53.774;-0.352;2023-09-30T21:03:57;101950;;;13;62
78843;BME280;70542;53.774;-0.352;2023-09-30T21:09:36;101940;;;13;62
78843;BME280;70542;53.774;-0.352;2023-09-30T21:15:15;101930;;;13;61
78843;BME280;70542;53.774;-0.352;2023-09-30T21:20:54;101930;;;13;61
78843;BME280;70542;53.774;-0.352;2023-09-30T21:26:33;101920;;;14;60
78843;BME280;70542;53.774;-0.352;2023-09-30T21:32:17;101910;;;14;59
78843;BME280;70542;53.774;-0.352;2023-09-30T21:37:55;101900;;;14;59
78843;BME280;70542;53.774;-0.352;2023-09-30T21:43:35;101890;;;15;57
78843;BME280;70542;53.774;-0.352;2023-09-30T21:49:14;101880;;;14;57
78843;BME280;70542;53.774;-0.352;2023-09-30T21:54:53;101890;;;15;56
78843;BME280;70542;53.774;-0.352;2023-09-30T22:00:31;101880;;;15;56
78843;BME280;70542;53.774;-0.352;2023-09-30T22:06:10;101830;;;14;57
78843;BME280;70542;53.774;-0.352;2023-09-30T22:11:49;101860;;;15;55
78843;BME280;70542;53.774;-0.352;2023-09-30T22:17:28;101860;;;15;55
78843;BME280;70542;53.774;-0.352;2023-09-30T22:23:07;101860;;;16;52
78843;BME280;70542;53.774;-0.352;2023-09-30T22:28:46;101840;;;17;51
78843;BME280;70542;53.774;-0.352;2023-09-30T22:34:25;101850;;;16;52
78843;BME280;70542;53.774;-0.352;2023-09-30T22:40:05;101850;;;16;54
78843;BME280;70542;53.774;-0.352;2023-09-30T22:45:44;101820;;;16;55
78843;BME280;70542;53.774;-0.352;2023-09-30T22:51:23;101830;;;16;53
78843;BME280;70542;53.774;-0.352;2023-09-30T22:57:03;101820;;;17;52
78843;BME280;70542;53.774;-0.352;2023-09-30T23:02:42;101810;;;17;52
78843;BME280;70542;53.774;-0.352;2023-09-30T23:08:26;101810;;;16;52
78843;BME280;70542;53.774;-0.352;2023-09-30T23:14:05;101800;;;17;51
78843;BME280;70542;53.774;-0.352;2023-09-30T23:19:44;101790;;;17;52
78843;BME280;70542;53.774;-0.352;2023-09-30T23:25:24;101780;;;16;52
78843;BME280;70542;53.774;-0.352;2023-09-30T23:31:03;101780;;;17;51
78843;BME280;70542;53.774;-0.352;2023-09-30T23:36:44;101770;;;17;52
78843;BME280;70542;53.774;-0.352;2023-09-30T23:42:23;101770;;;18;50
78843;BME280;70542;53.774;-0.352;2023-09-30T23:48:01;101760;;;18;50
78843;BME280;70542;53.774;-0.352;2023-09-30T23:53:40;101760;;;18;49
78843;BME280;70542;53.774;-0.352;2023-09-30T23:59:19;101760;;;17;51
